sensor_id;sensor_type;location;lat;lon;timestamp;P1;durP1;ratioP1;P2;durP2;ratioP2
12768;SDS011;6448;48.916;8.990;2023-06-19T00:00:04;3.60;;;3.40;;
12768;SDS011;6448;48.916;8.990;2023-06-19T00:01:12;3.38;;;3.10;;
12768;SDS011;6448;48.916;8.990;2023-06-19T00:02:13;3.55;;;3.30;;
12768;SDS011;6448;48.916;8.990;2023-06-19T00:03:16;3.75;;;3.45;;
12768;SDS011;6448;48.916;8.990;2023-06-19T00:04:18;3.70;;;3.50;;
12768;SDS011;6448;48.916;8.990;2023-06-19T00:05:19;3.50;;;3.30;;
12768;SDS011;6448;48.916;8.990;2023-06-19T00:06:23;3.38;;;3.17;;
12768;SDS011;6448;48.916;8.990;2023-06-19T00:07:24;3.20;;;3.00;;
12768;SDS011;6448;48.916;8.990;2023-06-19T00:08:25;3.47;;;3.28;;
12768;SDS011;6448;48.916;8.990;2023-06-19T00:09:26;3.42;;;3.22;;
12768;SDS011;6448;48.916;8.990;2023-06-19T00:10:28;3.30;;;3.10;;
12768;SDS011;6448;48.916;8.990;2023-06-19T00:11:29;3.60;;;3.40;;
12768;SDS011;6448;48.916;8.990;2023-06-19T00:12:31;3.30;;;3.10;;
12768;SDS011;6448;48.916;8.990;2023-06-19T00:13:32;3.28;;;3.08;;
12768;SDS011;6448;48.916;8.990;2023-06-19T00:14:33;3.40;;;3.20;;
12768;SDS011;6448;48.916;8.990;2023-06-19T00:15:36;3.25;;;3.05;;
12768;SDS011;6448;48.916;8.990;2023-06-19T00:16:37;3.35;;;3.15;;
12768;SDS011;6448;48.916;8.990;2023-06-19T00:17:40;3.65;;;3.35;;
12768;SDS011;6448;48.916;8.990;2023-06-19T00:18:43;3.47;;;3.27;;
12768;SDS011;6448;48.916;8.990;2023-06-19T00:19:44;3.30;;;3.10;;
12768;SDS011;6448;48.916;8.990;2023-06-19T00:20:46;3.70;;;3.50;;
12768;SDS011;6448;48.916;8.990;2023-06-19T00:21:47;3.50;;;3.20;;
12768;SDS011;6448;48.916;8.990;2023-06-19T00:22:49;3.40;;;3.20;;
12768;SDS011;6448;48.916;8.990;2023-06-19T00:23:52;3.55;;;3.33;;
12768;SDS011;6448;48.916;8.990;2023-06-19T00:24:54;3.70;;;3.45;;
12768;SDS011;6448;48.916;8.990;2023-06-19T00:25:54;3.72;;;3.45;;
12768;SDS011;6448;48.916;8.990;2023-06-19T00:26:56;3.50;;;3.30;;
12768;SDS011;6448;48.916;8.990;2023-06-19T00:28:02;3.30;;;3.10;;
12768;SDS011;6448;48.916;8.990;2023-06-19T00:29:04;3.30;;;3.10;;
12768;SDS011;6448;48.916;8.990;2023-06-19T00:30:07;3.45;;;3.25;;
12768;SDS011;6448;48.916;8.990;2023-06-19T00:31:09;3.83;;;3.53;;
12768;SDS011;6448;48.916;8.990;2023-06-19T00:32:13;3.85;;;3.55;;
12768;SDS011;6448;48.916;8.990;2023-06-19T00:33:16;3.60;;;3.40;;
12768;SDS011;6448;48.916;8.990;2023-06-19T00:34:18;3.57;;;3.33;;
12768;SDS011;6448;48.916;8.990;2023-06-19T00:35:19;3.50;;;3.20;;
12768;SDS011;6448;48.916;8.990;2023-06-19T00:36:22;3.30;;;3.10;;
12768;SDS011;6448;48.916;8.990;2023-06-19T00:37:26;3.50;;;3.30;;
12768;SDS011;6448;48.916;8.990;2023-06-19T00:38:33;3.40;;;3.20;;
12768;SDS011;6448;48.916;8.990;2023-06-19T00:39:35;3.35;;;3.15;;
12768;SDS011;6448;48.916;8.990;2023-06-19T00:40:36;3.55;;;3.25;;
12768;SDS011;6448;48.916;8.990;2023-06-19T00:41:37;3.38;;;3.17;;
12768;SDS011;6448;48.916;8.990;2023-06-19T00:42:39;3.40;;;3.20;;
12768;SDS011;6448;48.916;8.990;2023-06-19T00:43:41;3.53;;;3.22;;
12768;SDS011;6448;48.916;8.990;2023-06-19T00:44:42;3.92;;;3.63;;
12768;SDS011;6448;48.916;8.990;2023-06-19T00:45:44;3.60;;;3.40;;
12768;SDS011;6448;48.916;8.990;2023-06-19T00:46:45;3.90;;;3.60;;
12768;SDS011;6448;48.916;8.990;2023-06-19T00:47:47;3.90;;;3.60;;
12768;SDS011;6448;48.916;8.990;2023-06-19T00:48:48;3.70;;;3.50;;
12768;SDS011;6448;48.916;8.990;2023-06-19T00:49:53;3.30;;;3.10;;
12768;SDS011;6448;48.916;8.990;2023-06-19T00:50:54;3.28;;;3.08;;
12768;SDS011;6448;48.916;8.990;2023-06-19T00:51:58;3.72;;;3.50;;
12768;SDS011;6448;48.916;8.990;2023-06-19T00:52:59;3.80;;;3.50;;
12768;SDS011;6448;48.916;8.990;2023-06-19T00:54:03;3.80;;;3.50;;
12768;SDS011;6448;48.916;8.990;2023-06-19T00:55:05;3.97;;;3.67;;
12768;SDS011;6448;48.916;8.990;2023-06-19T00:56:09;3.77;;;3.57;;
12768;SDS011;6448;48.916;8.990;2023-06-19T00:57:10;4.07;;;3.78;;
12768;SDS011;6448;48.916;8.990;2023-06-19T00:58:12;3.40;;;3.20;;
12768;SDS011;6448;48.916;8.990;2023-06-19T00:59:14;3.43;;;3.23;;
12768;SDS011;6448;48.916;8.990;2023-06-19T01:00:17;3.72;;;3.30;;
12768;SDS011;6448;48.916;8.990;2023-06-19T01:01:18;3.70;;;3.10;;
12768;SDS011;6448;48.916;8.990;2023-06-19T01:02:21;3.20;;;2.90;;
12768;SDS011;6448;48.916;8.990;2023-06-19T01:03:23;3.10;;;2.80;;
12768;SDS011;6448;48.916;8.990;2023-06-19T01:04:26;3.00;;;2.63;;
12768;SDS011;6448;48.916;8.990;2023-06-19T01:05:28;3.55;;;2.75;;
12768;SDS011;6448;48.916;8.990;2023-06-19T01:06:31;2.70;;;2.50;;
12768;SDS011;6448;48.916;8.990;2023-06-19T01:07:50;2.58;;;2.38;;
12768;SDS011;6448;48.916;8.990;2023-06-19T01:08:59;2.67;;;2.30;;
12768;SDS011;6448;48.916;8.990;2023-06-19T01:10:05;2.33;;;2.20;;
12768;SDS011;6448;48.916;8.990;2023-06-19T01:11:10;3.15;;;2.33;;
12768;SDS011;6448;48.916;8.990;2023-06-19T01:12:15;3.13;;;2.33;;
12768;SDS011;6448;48.916;8.990;2023-06-19T01:13:26;2.30;;;2.10;;
12768;SDS011;6448;48.916;8.990;2023-06-19T01:14:34;2.88;;;1.90;;
12768;SDS011;6448;48.916;8.990;2023-06-19T01:15:39;2.70;;;2.10;;
12768;SDS011;6448;48.916;8.990;2023-06-19T01:16:42;2.10;;;1.90;;
12768;SDS011;6448;48.916;8.990;2023-06-19T01:17:44;2.35;;;2.15;;
12768;SDS011;6448;48.916;8.990;2023-06-19T01:18:46;2.08;;;1.88;;
12768;SDS011;6448;48.916;8.990;2023-06-19T01:19:49;2.00;;;1.80;;
12768;SDS011;6448;48.916;8.990;2023-06-19T01:20:55;2.58;;;2.00;;
12768;SDS011;6448;48.916;8.990;2023-06-19T01:22:01;2.50;;;1.90;;
12768;SDS011;6448;48.916;8.990;2023-06-19T01:23:06;2.22;;;2.03;;
12768;SDS011;6448;48.916;8.990;2023-06-19T01:24:08;2.67;;;2.00;;
12768;SDS011;6448;48.916;8.990;2023-06-19T01:25:09;2.78;;;2.08;;
12768;SDS011;6448;48.916;8.990;2023-06-19T01:26:13;2.30;;;2.10;;
12768;SDS011;6448;48.916;8.990;2023-06-19T01:27:15;2.67;;;2.17;;
12768;SDS011;6448;48.916;8.990;2023-06-19T01:28:18;2.20;;;2.00;;
12768;SDS011;6448;48.916;8.990;2023-06-19T01:29:19;2.80;;;2.13;;
12768;SDS011;6448;48.916;8.990;2023-06-19T01:30:21;2.47;;;2.20;;
12768;SDS011;6448;48.916;8.990;2023-06-19T01:31:26;2.53;;;2.33;;
12768;SDS011;6448;48.916;8.990;2023-06-19T01:32:37;3.25;;;2.28;;
12768;SDS011;6448;48.916;8.990;2023-06-19T01:33:43;2.40;;;2.30;;
12768;SDS011;6448;48.916;8.990;2023-06-19T01:34:49;2.30;;;2.20;;
12768;SDS011;6448;48.916;8.990;2023-06-19T01:35:52;2.60;;;2.40;;
12768;SDS011;6448;48.916;8.990;2023-06-19T01:36:55;2.50;;;2.30;;
12768;SDS011;6448;48.916;8.990;2023-06-19T01:37:58;2.65;;;2.45;;
12768;SDS011;6448;48.916;8.990;2023-06-19T01:39:01;2.67;;;2.47;;
12768;SDS011;6448;48.916;8.990;2023-06-19T01:40:05;2.60;;;2.40;;
12768;SDS011;6448;48.916;8.990;2023-06-19T01:41:10;2.65;;;2.45;;
12768;SDS011;6448;48.916;8.990;2023-06-19T01:42:12;2.72;;;2.33;;
12768;SDS011;6448;48.916;8.990;2023-06-19T01:43:15;2.50;;;2.30;;
12768;SDS011;6448;48.916;8.990;2023-06-19T01:44:17;2.67;;;2.47;;
12768;SDS011;6448;48.916;8.990;2023-06-19T01:45:19;2.70;;;2.50;;
12768;SDS011;6448;48.916;8.990;2023-06-19T01:46:20;3.00;;;2.50;;
12768;SDS011;6448;48.916;8.990;2023-06-19T01:47:22;2.60;;;2.40;;
12768;SDS011;6448;48.916;8.990;2023-06-19T01:48:23;2.40;;;2.20;;
12768;SDS011;6448;48.916;8.990;2023-06-19T01:49:25;2.40;;;2.30;;
12768;SDS011;6448;48.916;8.990;2023-06-19T01:50:26;2.10;;;2.00;;
12768;SDS011;6448;48.916;8.990;2023-06-19T01:51:28;2.42;;;2.22;;
12768;SDS011;6448;48.916;8.990;2023-06-19T01:52:29;2.53;;;2.10;;
12768;SDS011;6448;48.916;8.990;2023-06-19T01:53:32;2.03;;;1.92;;
12768;SDS011;6448;48.916;8.990;2023-06-19T01:54:32;2.08;;;1.98;;
12768;SDS011;6448;48.916;8.990;2023-06-19T01:55:34;2.83;;;2.05;;
12768;SDS011;6448;48.916;8.990;2023-06-19T01:56:35;2.20;;;2.10;;
12768;SDS011;6448;48.916;8.990;2023-06-19T01:57:37;2.30;;;2.10;;
12768;SDS011;6448;48.916;8.990;2023-06-19T01:58:38;2.33;;;2.05;;
12768;SDS011;6448;48.916;8.990;2023-06-19T01:59:40;2.40;;;1.90;;
12768;SDS011;6448;48.916;8.990;2023-06-19T02:00:40;2.20;;;2.10;;
12768;SDS011;6448;48.916;8.990;2023-06-19T02:01:42;2.10;;;1.90;;
12768;SDS011;6448;48.916;8.990;2023-06-19T02:02:43;2.30;;;2.10;;
12768;SDS011;6448;48.916;8.990;2023-06-19T02:03:45;2.10;;;2.00;;
12768;SDS011;6448;48.916;8.990;2023-06-19T02:04:46;2.17;;;2.08;;
12768;SDS011;6448;48.916;8.990;2023-06-19T02:05:47;2.00;;;1.90;;
12768;SDS011;6448;48.916;8.990;2023-06-19T02:06:48;2.00;;;1.90;;
12768;SDS011;6448;48.916;8.990;2023-06-19T02:07:50;1.90;;;1.80;;
12768;SDS011;6448;48.916;8.990;2023-06-19T02:08:52;1.90;;;1.80;;
12768;SDS011;6448;48.916;8.990;2023-06-19T02:09:54;1.95;;;1.75;;
12768;SDS011;6448;48.916;8.990;2023-06-19T02:10:56;1.80;;;1.70;;
12768;SDS011;6448;48.916;8.990;2023-06-19T02:11:58;2.08;;;1.73;;
12768;SDS011;6448;48.916;8.990;2023-06-19T02:12:59;1.90;;;1.80;;
12768;SDS011;6448;48.916;8.990;2023-06-19T02:14:01;1.80;;;1.70;;
12768;SDS011;6448;48.916;8.990;2023-06-19T02:15:03;1.80;;;1.70;;
12768;SDS011;6448;48.916;8.990;2023-06-19T02:16:05;1.67;;;1.57;;
12768;SDS011;6448;48.916;8.990;2023-06-19T02:17:07;1.90;;;1.80;;
12768;SDS011;6448;48.916;8.990;2023-06-19T02:18:09;1.75;;;1.65;;
12768;SDS011;6448;48.916;8.990;2023-06-19T02:19:10;2.60;;;1.77;;
12768;SDS011;6448;48.916;8.990;2023-06-19T02:20:12;1.60;;;1.50;;
12768;SDS011;6448;48.916;8.990;2023-06-19T02:21:13;1.90;;;1.80;;
12768;SDS011;6448;48.916;8.990;2023-06-19T02:22:15;1.80;;;1.70;;
12768;SDS011;6448;48.916;8.990;2023-06-19T02:23:16;1.83;;;1.73;;
12768;SDS011;6448;48.916;8.990;2023-06-19T02:24:19;1.90;;;1.70;;
12768;SDS011;6448;48.916;8.990;2023-06-19T02:25:20;1.70;;;1.60;;
12768;SDS011;6448;48.916;8.990;2023-06-19T02:26:22;1.85;;;1.60;;
12768;SDS011;6448;48.916;8.990;2023-06-19T02:27:22;1.70;;;1.60;;
12768;SDS011;6448;48.916;8.990;2023-06-19T02:28:25;1.65;;;1.55;;
12768;SDS011;6448;48.916;8.990;2023-06-19T02:29:26;1.80;;;1.70;;
12768;SDS011;6448;48.916;8.990;2023-06-19T02:30:29;1.80;;;1.70;;
12768;SDS011;6448;48.916;8.990;2023-06-19T02:31:30;1.70;;;1.60;;
12768;SDS011;6448;48.916;8.990;2023-06-19T02:32:32;1.77;;;1.67;;
12768;SDS011;6448;48.916;8.990;2023-06-19T02:33:33;1.80;;;1.70;;
12768;SDS011;6448;48.916;8.990;2023-06-19T02:34:35;1.75;;;1.65;;
12768;SDS011;6448;48.916;8.990;2023-06-19T02:35:35;1.52;;;1.42;;
12768;SDS011;6448;48.916;8.990;2023-06-19T02:36:37;2.00;;;1.60;;
12768;SDS011;6448;48.916;8.990;2023-06-19T02:37:38;1.60;;;1.50;;
12768;SDS011;6448;48.916;8.990;2023-06-19T02:38:41;1.58;;;1.48;;
12768;SDS011;6448;48.916;8.990;2023-06-19T02:39:44;1.40;;;1.30;;
12768;SDS011;6448;48.916;8.990;2023-06-19T02:40:46;1.60;;;1.50;;
12768;SDS011;6448;48.916;8.990;2023-06-19T02:41:46;1.75;;;1.65;;
12768;SDS011;6448;48.916;8.990;2023-06-19T02:42:48;1.67;;;1.58;;
12768;SDS011;6448;48.916;8.990;2023-06-19T02:43:49;1.50;;;1.40;;
12768;SDS011;6448;48.916;8.990;2023-06-19T02:44:51;1.70;;;1.60;;
12768;SDS011;6448;48.916;8.990;2023-06-19T02:45:51;1.67;;;1.58;;
12768;SDS011;6448;48.916;8.990;2023-06-19T02:46:53;1.50;;;1.40;;
12768;SDS011;6448;48.916;8.990;2023-06-19T02:47:54;1.45;;;1.35;;
12768;SDS011;6448;48.916;8.990;2023-06-19T02:48:56;1.35;;;1.25;;
12768;SDS011;6448;48.916;8.990;2023-06-19T02:49:57;1.40;;;1.30;;
12768;SDS011;6448;48.916;8.990;2023-06-19T02:50:59;1.52;;;1.42;;
12768;SDS011;6448;48.916;8.990;2023-06-19T02:51:59;1.50;;;1.40;;
12768;SDS011;6448;48.916;8.990;2023-06-19T02:53:01;1.50;;;1.40;;
12768;SDS011;6448;48.916;8.990;2023-06-19T02:54:02;1.80;;;1.50;;
12768;SDS011;6448;48.916;8.990;2023-06-19T02:55:06;1.60;;;1.50;;
12768;SDS011;6448;48.916;8.990;2023-06-19T02:56:08;1.63;;;1.52;;
12768;SDS011;6448;48.916;8.990;2023-06-19T02:57:11;1.60;;;1.50;;
12768;SDS011;6448;48.916;8.990;2023-06-19T02:58:12;1.90;;;1.60;;
12768;SDS011;6448;48.916;8.990;2023-06-19T02:59:13;1.60;;;1.50;;
12768;SDS011;6448;48.916;8.990;2023-06-19T03:00:14;2.03;;;1.65;;
12768;SDS011;6448;48.916;8.990;2023-06-19T03:01:17;1.60;;;1.50;;
12768;SDS011;6448;48.916;8.990;2023-06-19T03:02:18;1.70;;;1.60;;
12768;SDS011;6448;48.916;8.990;2023-06-19T03:03:20;1.70;;;1.60;;
12768;SDS011;6448;48.916;8.990;2023-06-19T03:04:24;1.70;;;1.60;;
12768;SDS011;6448;48.916;8.990;2023-06-19T03:05:27;1.60;;;1.50;;
12768;SDS011;6448;48.916;8.990;2023-06-19T03:06:30;1.60;;;1.50;;
12768;SDS011;6448;48.916;8.990;2023-06-19T03:07:33;1.70;;;1.50;;
12768;SDS011;6448;48.916;8.990;2023-06-19T03:08:35;1.42;;;1.33;;
12768;SDS011;6448;48.916;8.990;2023-06-19T03:09:37;1.65;;;1.55;;
12768;SDS011;6448;48.916;8.990;2023-06-19T03:10:39;1.70;;;1.60;;
12768;SDS011;6448;48.916;8.990;2023-06-19T03:11:41;1.50;;;1.40;;
12768;SDS011;6448;48.916;8.990;2023-06-19T03:12:43;1.85;;;1.60;;
12768;SDS011;6448;48.916;8.990;2023-06-19T03:13:47;1.70;;;1.60;;
12768;SDS011;6448;48.916;8.990;2023-06-19T03:14:50;1.73;;;1.63;;
12768;SDS011;6448;48.916;8.990;2023-06-19T03:15:52;1.70;;;1.60;;
12768;SDS011;6448;48.916;8.990;2023-06-19T03:16:52;1.55;;;1.45;;
12768;SDS011;6448;48.916;8.990;2023-06-19T03:17:54;1.70;;;1.60;;
12768;SDS011;6448;48.916;8.990;2023-06-19T03:18:58;1.70;;;1.60;;
12768;SDS011;6448;48.916;8.990;2023-06-19T03:19:59;2.10;;;1.90;;
12768;SDS011;6448;48.916;8.990;2023-06-19T03:21:00;1.90;;;1.80;;
12768;SDS011;6448;48.916;8.990;2023-06-19T03:22:02;1.70;;;1.60;;
12768;SDS011;6448;48.916;8.990;2023-06-19T03:23:03;1.80;;;1.70;;
12768;SDS011;6448;48.916;8.990;2023-06-19T03:24:06;1.75;;;1.65;;
12768;SDS011;6448;48.916;8.990;2023-06-19T03:25:08;1.70;;;1.60;;
12768;SDS011;6448;48.916;8.990;2023-06-19T03:26:12;1.83;;;1.73;;
12768;SDS011;6448;48.916;8.990;2023-06-19T03:27:15;2.00;;;1.90;;
12768;SDS011;6448;48.916;8.990;2023-06-19T03:28:17;1.80;;;1.70;;
12768;SDS011;6448;48.916;8.990;2023-06-19T03:29:18;1.70;;;1.60;;
12768;SDS011;6448;48.916;8.990;2023-06-19T03:30:28;1.80;;;1.70;;
12768;SDS011;6448;48.916;8.990;2023-06-19T03:31:29;1.60;;;1.50;;
12768;SDS011;6448;48.916;8.990;2023-06-19T03:32:31;1.93;;;1.80;;
12768;SDS011;6448;48.916;8.990;2023-06-19T03:33:35;1.80;;;1.70;;
12768;SDS011;6448;48.916;8.990;2023-06-19T03:34:36;1.80;;;1.70;;
12768;SDS011;6448;48.916;8.990;2023-06-19T03:35:41;1.50;;;1.40;;
12768;SDS011;6448;48.916;8.990;2023-06-19T03:36:45;1.60;;;1.50;;
12768;SDS011;6448;48.916;8.990;2023-06-19T03:37:46;1.50;;;1.40;;
12768;SDS011;6448;48.916;8.990;2023-06-19T03:38:47;1.63;;;1.52;;
12768;SDS011;6448;48.916;8.990;2023-06-19T03:39:53;1.50;;;1.40;;
12768;SDS011;6448;48.916;8.990;2023-06-19T03:40:54;1.60;;;1.50;;
12768;SDS011;6448;48.916;8.990;2023-06-19T03:41:57;1.80;;;1.70;;
12768;SDS011;6448;48.916;8.990;2023-06-19T03:42:58;1.60;;;1.50;;
12768;SDS011;6448;48.916;8.990;2023-06-19T03:44:00;1.63;;;1.52;;
12768;SDS011;6448;48.916;8.990;2023-06-19T03:45:02;1.70;;;1.60;;
12768;SDS011;6448;48.916;8.990;2023-06-19T03:46:04;1.70;;;1.60;;
12768;SDS011;6448;48.916;8.990;2023-06-19T03:47:05;1.67;;;1.58;;
12768;SDS011;6448;48.916;8.990;2023-06-19T03:48:07;1.90;;;1.80;;
12768;SDS011;6448;48.916;8.990;2023-06-19T03:49:08;1.70;;;1.60;;
12768;SDS011;6448;48.916;8.990;2023-06-19T03:50:10;1.60;;;1.50;;
12768;SDS011;6448;48.916;8.990;2023-06-19T03:51:11;1.67;;;1.57;;
12768;SDS011;6448;48.916;8.990;2023-06-19T03:52:13;1.60;;;1.50;;
12768;SDS011;6448;48.916;8.990;2023-06-19T03:53:13;1.67;;;1.58;;
12768;SDS011;6448;48.916;8.990;2023-06-19T03:54:15;1.60;;;1.50;;
12768;SDS011;6448;48.916;8.990;2023-06-19T03:55:17;1.70;;;1.60;;
12768;SDS011;6448;48.916;8.990;2023-06-19T03:56:19;1.70;;;1.60;;
12768;SDS011;6448;48.916;8.990;2023-06-19T03:57:21;1.50;;;1.40;;
12768;SDS011;6448;48.916;8.990;2023-06-19T03:58:22;1.75;;;1.65;;
12768;SDS011;6448;48.916;8.990;2023-06-19T03:59:23;1.90;;;1.80;;
12768;SDS011;6448;48.916;8.990;2023-06-19T04:00:25;1.90;;;1.80;;
12768;SDS011;6448;48.916;8.990;2023-06-19T04:01:26;1.90;;;1.80;;
12768;SDS011;6448;48.916;8.990;2023-06-19T04:02:28;1.70;;;1.60;;
12768;SDS011;6448;48.916;8.990;2023-06-19T04:03:28;2.00;;;1.90;;
12768;SDS011;6448;48.916;8.990;2023-06-19T04:04:30;1.80;;;1.70;;
12768;SDS011;6448;48.916;8.990;2023-06-19T04:05:31;1.80;;;1.70;;
12768;SDS011;6448;48.916;8.990;2023-06-19T04:06:33;1.70;;;1.60;;
12768;SDS011;6448;48.916;8.990;2023-06-19T04:07:34;1.60;;;1.50;;
12768;SDS011;6448;48.916;8.990;2023-06-19T04:08:36;1.75;;;1.65;;
12768;SDS011;6448;48.916;8.990;2023-06-19T04:09:37;1.60;;;1.50;;
12768;SDS011;6448;48.916;8.990;2023-06-19T04:10:39;1.63;;;1.52;;
12768;SDS011;6448;48.916;8.990;2023-06-19T04:11:40;1.70;;;1.60;;
12768;SDS011;6448;48.916;8.990;2023-06-19T04:12:43;1.70;;;1.60;;
12768;SDS011;6448;48.916;8.990;2023-06-19T04:13:45;1.70;;;1.60;;
12768;SDS011;6448;48.916;8.990;2023-06-19T04:14:47;1.70;;;1.60;;
12768;SDS011;6448;48.916;8.990;2023-06-19T04:15:47;1.85;;;1.75;;
12768;SDS011;6448;48.916;8.990;2023-06-19T04:16:49;1.45;;;1.35;;
12768;SDS011;6448;48.916;8.990;2023-06-19T04:17:50;1.70;;;1.60;;
12768;SDS011;6448;48.916;8.990;2023-06-19T04:18:52;1.70;;;1.60;;
12768;SDS011;6448;48.916;8.990;2023-06-19T04:19:53;1.80;;;1.70;;
12768;SDS011;6448;48.916;8.990;2023-06-19T04:20:55;1.70;;;1.60;;
12768;SDS011;6448;48.916;8.990;2023-06-19T04:21:55;1.70;;;1.60;;
12768;SDS011;6448;48.916;8.990;2023-06-19T04:22:57;1.58;;;1.48;;
12768;SDS011;6448;48.916;8.990;2023-06-19T04:23:58;1.80;;;1.70;;
12768;SDS011;6448;48.916;8.990;2023-06-19T04:25:00;1.60;;;1.50;;
12768;SDS011;6448;48.916;8.990;2023-06-19T04:26:00;2.10;;;1.70;;
12768;SDS011;6448;48.916;8.990;2023-06-19T04:27:03;1.70;;;1.60;;
12768;SDS011;6448;48.916;8.990;2023-06-19T04:28:05;1.65;;;1.55;;
12768;SDS011;6448;48.916;8.990;2023-06-19T04:29:07;1.80;;;1.70;;
12768;SDS011;6448;48.916;8.990;2023-06-19T04:30:08;1.60;;;1.50;;
12768;SDS011;6448;48.916;8.990;2023-06-19T04:31:10;1.52;;;1.42;;
12768;SDS011;6448;48.916;8.990;2023-06-19T04:32:11;1.58;;;1.48;;
12768;SDS011;6448;48.916;8.990;2023-06-19T04:33:13;1.70;;;1.60;;
12768;SDS011;6448;48.916;8.990;2023-06-19T04:34:15;1.60;;;1.50;;
12768;SDS011;6448;48.916;8.990;2023-06-19T04:35:20;1.60;;;1.50;;
12768;SDS011;6448;48.916;8.990;2023-06-19T04:36:23;1.50;;;1.40;;
12768;SDS011;6448;48.916;8.990;2023-06-19T04:37:25;1.60;;;1.50;;
12768;SDS011;6448;48.916;8.990;2023-06-19T04:38:26;1.50;;;1.40;;
12768;SDS011;6448;48.916;8.990;2023-06-19T04:39:28;1.50;;;1.40;;
12768;SDS011;6448;48.916;8.990;2023-06-19T04:40:28;1.80;;;1.70;;
12768;SDS011;6448;48.916;8.990;2023-06-19T04:41:30;1.60;;;1.50;;
12768;SDS011;6448;48.916;8.990;2023-06-19T04:42:31;1.70;;;1.60;;
12768;SDS011;6448;48.916;8.990;2023-06-19T04:43:34;1.60;;;1.50;;
12768;SDS011;6448;48.916;8.990;2023-06-19T04:44:36;1.60;;;1.50;;
12768;SDS011;6448;48.916;8.990;2023-06-19T04:45:36;1.70;;;1.60;;
12768;SDS011;6448;48.916;8.990;2023-06-19T04:46:38;1.70;;;1.60;;
12768;SDS011;6448;48.916;8.990;2023-06-19T04:47:39;2.00;;;1.90;;
12768;SDS011;6448;48.916;8.990;2023-06-19T04:48:41;1.98;;;1.80;;
12768;SDS011;6448;48.916;8.990;2023-06-19T04:49:43;1.92;;;1.83;;
12768;SDS011;6448;48.916;8.990;2023-06-19T04:50:43;1.80;;;1.70;;
12768;SDS011;6448;48.916;8.990;2023-06-19T04:51:46;2.00;;;1.90;;
12768;SDS011;6448;48.916;8.990;2023-06-19T04:52:48;1.70;;;1.60;;
12768;SDS011;6448;48.916;8.990;2023-06-19T04:53:50;1.60;;;1.50;;
12768;SDS011;6448;48.916;8.990;2023-06-19T04:54:51;1.80;;;1.70;;
12768;SDS011;6448;48.916;8.990;2023-06-19T04:55:53;1.70;;;1.60;;
12768;SDS011;6448;48.916;8.990;2023-06-19T04:56:55;1.80;;;1.70;;
12768;SDS011;6448;48.916;8.990;2023-06-19T04:57:56;1.73;;;1.63;;
12768;SDS011;6448;48.916;8.990;2023-06-19T04:58:59;1.70;;;1.60;;
12768;SDS011;6448;48.916;8.990;2023-06-19T05:00:02;2.20;;;1.75;;
12768;SDS011;6448;48.916;8.990;2023-06-19T05:01:05;1.90;;;1.80;;
12768;SDS011;6448;48.916;8.990;2023-06-19T05:02:10;1.70;;;1.60;;
12768;SDS011;6448;48.916;8.990;2023-06-19T05:03:11;1.70;;;1.60;;
12768;SDS011;6448;48.916;8.990;2023-06-19T05:04:14;1.67;;;1.58;;
12768;SDS011;6448;48.916;8.990;2023-06-19T05:05:14;1.58;;;1.48;;
12768;SDS011;6448;48.916;8.990;2023-06-19T05:06:16;1.67;;;1.58;;
12768;SDS011;6448;48.916;8.990;2023-06-19T05:07:17;1.80;;;1.70;;
12768;SDS011;6448;48.916;8.990;2023-06-19T05:08:19;1.70;;;1.60;;
12768;SDS011;6448;48.916;8.990;2023-06-19T05:09:20;1.80;;;1.70;;
12768;SDS011;6448;48.916;8.990;2023-06-19T05:10:21;1.88;;;1.77;;
12768;SDS011;6448;48.916;8.990;2023-06-19T05:11:22;1.90;;;1.70;;
12768;SDS011;6448;48.916;8.990;2023-06-19T05:12:24;2.03;;;1.83;;
12768;SDS011;6448;48.916;8.990;2023-06-19T05:13:25;2.00;;;1.90;;
12768;SDS011;6448;48.916;8.990;2023-06-19T05:14:28;2.00;;;1.88;;
12768;SDS011;6448;48.916;8.990;2023-06-19T05:15:29;1.70;;;1.60;;
12768;SDS011;6448;48.916;8.990;2023-06-19T05:16:30;1.83;;;1.50;;
12768;SDS011;6448;48.916;8.990;2023-06-19T05:17:31;1.90;;;1.80;;
12768;SDS011;6448;48.916;8.990;2023-06-19T05:18:33;1.80;;;1.70;;
12768;SDS011;6448;48.916;8.990;2023-06-19T05:19:34;1.70;;;1.60;;
12768;SDS011;6448;48.916;8.990;2023-06-19T05:20:35;1.70;;;1.60;;
12768;SDS011;6448;48.916;8.990;2023-06-19T05:21:36;1.90;;;1.70;;
12768;SDS011;6448;48.916;8.990;2023-06-19T05:22:38;1.95;;;1.80;;
12768;SDS011;6448;48.916;8.990;2023-06-19T05:23:39;1.70;;;1.60;;
12768;SDS011;6448;48.916;8.990;2023-06-19T05:24:41;1.90;;;1.70;;
12768;SDS011;6448;48.916;8.990;2023-06-19T05:25:41;1.80;;;1.70;;
12768;SDS011;6448;48.916;8.990;2023-06-19T05:26:43;1.70;;;1.60;;
12768;SDS011;6448;48.916;8.990;2023-06-19T05:27:44;1.80;;;1.70;;
12768;SDS011;6448;48.916;8.990;2023-06-19T05:28:46;2.00;;;1.90;;
12768;SDS011;6448;48.916;8.990;2023-06-19T05:29:48;2.00;;;1.70;;
12768;SDS011;6448;48.916;8.990;2023-06-19T05:30:50;1.73;;;1.63;;
12768;SDS011;6448;48.916;8.990;2023-06-19T05:31:50;1.70;;;1.60;;
12768;SDS011;6448;48.916;8.990;2023-06-19T05:32:52;1.80;;;1.70;;
12768;SDS011;6448;48.916;8.990;2023-06-19T05:33:53;2.03;;;1.83;;
12768;SDS011;6448;48.916;8.990;2023-06-19T05:34:55;2.03;;;1.73;;
12768;SDS011;6448;48.916;8.990;2023-06-19T05:35:55;1.80;;;1.70;;
12768;SDS011;6448;48.916;8.990;2023-06-19T05:36:57;1.80;;;1.70;;
12768;SDS011;6448;48.916;8.990;2023-06-19T05:37:58;1.70;;;1.60;;
12768;SDS011;6448;48.916;8.990;2023-06-19T05:39:00;2.20;;;1.90;;
12768;SDS011;6448;48.916;8.990;2023-06-19T05:40:02;1.80;;;1.70;;
12768;SDS011;6448;48.916;8.990;2023-06-19T05:41:03;2.33;;;1.80;;
12768;SDS011;6448;48.916;8.990;2023-06-19T05:42:06;1.80;;;1.70;;
12768;SDS011;6448;48.916;8.990;2023-06-19T05:43:07;1.70;;;1.60;;
12768;SDS011;6448;48.916;8.990;2023-06-19T05:44:09;1.80;;;1.70;;
12768;SDS011;6448;48.916;8.990;2023-06-19T05:45:15;2.40;;;1.80;;
12768;SDS011;6448;48.916;8.990;2023-06-19T05:46:17;1.70;;;1.60;;
12768;SDS011;6448;48.916;8.990;2023-06-19T05:47:18;1.70;;;1.60;;
12768;SDS011;6448;48.916;8.990;2023-06-19T05:48:20;1.60;;;1.50;;
12768;SDS011;6448;48.916;8.990;2023-06-19T05:49:21;1.85;;;1.75;;
12768;SDS011;6448;48.916;8.990;2023-06-19T05:50:26;2.00;;;1.90;;
12768;SDS011;6448;48.916;8.990;2023-06-19T05:51:27;1.92;;;1.83;;
12768;SDS011;6448;48.916;8.990;2023-06-19T05:52:28;1.83;;;1.73;;
12768;SDS011;6448;48.916;8.990;2023-06-19T05:53:29;1.93;;;1.80;;
12768;SDS011;6448;48.916;8.990;2023-06-19T05:54:31;1.70;;;1.60;;
12768;SDS011;6448;48.916;8.990;2023-06-19T05:55:32;1.98;;;1.88;;
12768;SDS011;6448;48.916;8.990;2023-06-19T05:56:34;1.80;;;1.70;;
12768;SDS011;6448;48.916;8.990;2023-06-19T05:57:36;1.77;;;1.67;;
12768;SDS011;6448;48.916;8.990;2023-06-19T05:58:37;1.80;;;1.70;;
12768;SDS011;6448;48.916;8.990;2023-06-19T05:59:39;1.70;;;1.60;;
12768;SDS011;6448;48.916;8.990;2023-06-19T06:00:43;2.08;;;1.75;;
12768;SDS011;6448;48.916;8.990;2023-06-19T06:01:43;1.70;;;1.60;;
12768;SDS011;6448;48.916;8.990;2023-06-19T06:02:45;1.70;;;1.60;;
12768;SDS011;6448;48.916;8.990;2023-06-19T06:03:46;1.80;;;1.70;;
12768;SDS011;6448;48.916;8.990;2023-06-19T06:04:48;1.80;;;1.70;;
12768;SDS011;6448;48.916;8.990;2023-06-19T06:05:49;1.73;;;1.63;;
12768;SDS011;6448;48.916;8.990;2023-06-19T06:06:50;1.80;;;1.70;;
12768;SDS011;6448;48.916;8.990;2023-06-19T06:07:52;1.80;;;1.70;;
12768;SDS011;6448;48.916;8.990;2023-06-19T06:08:53;1.70;;;1.60;;
12768;SDS011;6448;48.916;8.990;2023-06-19T06:09:55;1.73;;;1.63;;
12768;SDS011;6448;48.916;8.990;2023-06-19T06:10:56;1.80;;;1.70;;
12768;SDS011;6448;48.916;8.990;2023-06-19T06:11:58;1.63;;;1.52;;
12768;SDS011;6448;48.916;8.990;2023-06-19T06:12:58;1.80;;;1.70;;
12768;SDS011;6448;48.916;8.990;2023-06-19T06:14:00;1.70;;;1.60;;
12768;SDS011;6448;48.916;8.990;2023-06-19T06:15:02;1.80;;;1.70;;
12768;SDS011;6448;48.916;8.990;2023-06-19T06:16:05;1.67;;;1.58;;
12768;SDS011;6448;48.916;8.990;2023-06-19T06:17:07;1.80;;;1.60;;
12768;SDS011;6448;48.916;8.990;2023-06-19T06:18:08;1.60;;;1.50;;
12768;SDS011;6448;48.916;8.990;2023-06-19T06:19:10;1.85;;;1.75;;